LGRP Airport Information

Runway Information
Runway 07 Length 10846 ft width 148 ft
Elevation 16 ft Threshold 0 ft Heading 70
Runway 25 Length 10846 ft Width 148 ft
Elevation 17 ft Threshold 0 ft Heading 250
Airport Frequencies
Type A/G Name RDO Frequency 563.7 MHZ
Type APP Name RODOS APP Frequency 118.25 MHZ
Type ATIS Name ATIS Frequency 126.35 MHZ
Type GND Name GND Frequency 121.7 MHZ
Type TWR Name TWR Frequency 118.2 MHZ
Airport Navaids
Type VOR-DME Name Paradisi Frequency 108600 KHZ
Type VOR-DME Name Rodos Frequency 115800 KHZ
Type TACAN Name Rodos Frequency 117400 KHZ
Type NDB Name Rodos Frequency 339 KHZ
Airport Weather Information & NOTAM
ADDS - METARS form results

(0938 UTC 19 August 2019)
Data provider http://aviationweather.gov/metar/data/
 
METAR text: LGRP 190920Z 27006KT CAVOK 30/15 Q1008 NOSIG
Conditions at: LGRP (RHODES/DIAGORAS , GR) observed 0920 UTC 19 August 2019
Temperature: 30.0°C (86°F)
Dewpoint: 15.0°C (59°F) [RH = 40%]
Pressure (altimeter): 29.76 inches Hg (1008.0 mb)
Winds: from the W (270 degrees) at 7 MPH (6 knots; 3.1 m/s)
Visibility: 6 or more miles (10+ km)
Ceiling: ceiling and visibility are OK
Clouds: unknown
Weather: no significant weather observed at this time

METAR text: LGRP 190850Z 30006KT CAVOK 30/15 Q1008 NOSIG
Conditions at: LGRP (RHODES/DIAGORAS , GR) observed 0850 UTC 19 August 2019
Temperature: 30.0°C (86°F)
Dewpoint: 15.0°C (59°F) [RH = 40%]
Pressure (altimeter): 29.76 inches Hg (1008.0 mb)
Winds: from the WNW (300 degrees) at 7 MPH (6 knots; 3.1 m/s)
Visibility: 6 or more miles (10+ km)
Ceiling: ceiling and visibility are OK
Clouds: unknown
Weather: no significant weather observed at this time

Forecast for: LGRP (RHODES/DIAGORAS , GR)
Text: TAF LGRP 190500Z 1906/2006 28010KT 9999 FEW020
Forecast period: 0600 UTC 19 August 2019 to 0600 UTC 20 August 2019
Forecast type: FROM: standard forecast or significant change
Winds: from the W (280 degrees) at 12 MPH (10 knots; 5.1 m/s)
Visibility: 6 or more miles 10+ km)
Ceiling: at least 12,000 feet AGL
Clouds: few clouds at 2000 feet AGL
Weather: no significant weather forecast for this period